Time;durP1;ratioP1;P1;durP2;ratioP2;P2;SDS_P1;SDS_P2;PMS_P1;PMS_P2;Temp;Humidity;BMP_temperature;BMP_pressure;BME280_temperature;BME280_humidity;BME280_pressure;Samples;Min_cycle;Max_cycle;Signal;HPM_P1;HPM_P2
2022/09/20 00:04:41;;;;;;;42.03;34.50;;;22.80;52.70;;;;;;4807327;54;21000;-29
2022/09/20 00:09:42;;;;;;;42.92;33.08;;;22.80;52.80;;;;;;4801434;54;21482;-28
2022/09/20 00:14:43;;;;;;;43.17;34.03;;;22.80;52.80;;;;;;4803859;54;21007;-30
2022/09/20 00:19:44;;;;;;;39.65;32.38;;;22.80;52.80;;;;;;4794944;54;20996;-29
2022/09/20 00:24:45;;;;;;;37.95;31.00;;;22.80;52.70;;;;;;4795846;55;21008;-30
2022/09/20 00:29:46;;;;;;;39.40;32.00;;;22.80;52.80;;;;;;4835110;54;21509;-31
2022/09/20 00:40:11;;;;;;;38.90;31.75;;;22.80;52.70;;;;;;4794669;54;21083;-29
2022/09/20 00:45:26;;;;;;;38.55;30.75;;;22.70;52.70;;;;;;4806128;54;21489;-27
2022/09/20 00:50:48;;;;;;;37.65;30.37;;;22.80;52.80;;;;;;4815012;54;21068;-28
2022/09/20 00:55:54;;;;;;;38.97;31.08;;;22.80;52.70;;;;;;4806803;54;21016;-30
2022/09/20 01:00:57;;;;;;;39.00;30.77;;;22.70;52.70;;;;;;4807026;54;21063;-28
2022/09/20 01:06:02;;;;;;;35.13;28.87;;;22.70;52.70;;;;;;4797673;54;21593;-29
2022/09/20 01:11:04;;;;;;;35.67;28.70;;;22.70;52.70;;;;;;4822969;54;21466;-29
2022/09/20 01:16:06;;;;;;;36.92;28.10;;;22.70;52.70;;;;;;4839483;54;21051;-30
2022/09/20 01:21:08;;;;;;;34.45;27.85;;;22.80;52.70;;;;;;4811235;54;21011;-27
2022/09/20 01:28:00;;;;;;;36.03;28.77;;;22.70;52.70;;;;;;4828744;54;20996;-27
2022/09/20 01:34:36;;;;;;;34.80;28.15;;;22.70;52.70;;;;;;4812324;54;21011;-27
2022/09/20 01:41:28;;;;;;;32.38;26.85;;;22.70;52.80;;;;;;4805606;54;21080;-27
2022/09/20 01:46:34;;;;;;;34.88;27.10;;;22.70;52.70;;;;;;4798770;54;22353;-28
2022/09/20 01:55:00;;;;;;;31.80;26.83;;;22.70;52.70;;;;;;4810753;54;21106;-30
2022/09/20 02:00:11;;;;;;;31.75;26.12;;;22.70;52.60;;;;;;4811006;54;21051;-29
2022/09/20 02:06:58;;;;;;;31.08;25.23;;;22.70;52.60;;;;;;4796289;54;21060;-31
2022/09/20 02:15:04;;;;;;;30.15;25.27;;;22.70;52.70;;;;;;4801593;54;21024;-30
2022/09/20 02:21:50;;;;;;;31.27;25.75;;;22.70;52.60;;;;;;4813689;54;22375;-31
2022/09/20 02:29:02;;;;;;;30.15;24.70;;;22.70;52.70;;;;;;4823653;54;21039;-28
2022/09/20 02:35:55;;;;;;;30.65;24.23;;;22.70;52.60;;;;;;4801804;54;21126;-33
2022/09/20 02:44:11;;;;;;;30.73;24.58;;;22.70;52.60;;;;;;4798606;54;21107;-27
2022/09/20 02:49:38;;;;;;;27.87;23.55;;;22.70;52.60;;;;;;4802742;54;21011;-28
2022/09/20 02:55:16;;;;;;;28.92;23.60;;;22.70;52.60;;;;;;4818696;54;21095;-32
2022/09/20 03:00:27;;;;;;;28.40;23.75;;;22.70;52.60;;;;;;4808427;54;21091;-29
2022/09/20 03:05:57;;;;;;;27.52;23.10;;;22.70;52.60;;;;;;4817318;54;21003;-29
2022/09/20 03:11:28;;;;;;;27.20;22.70;;;22.70;52.60;;;;;;4823557;54;20999;-32
2022/09/20 03:18:10;;;;;;;25.52;21.92;;;22.70;52.60;;;;;;4832230;54;21046;-31
2022/09/20 03:24:51;;;;;;;24.55;20.85;;;22.70;52.60;;;;;;4816081;54;21094;-33
2022/09/20 03:30:15;;;;;;;26.83;22.73;;;22.70;52.50;;;;;;4808641;54;21067;-27
2022/09/20 03:39:03;;;;;;;25.73;21.58;;;22.70;52.50;;;;;;4816455;54;21485;-32
2022/09/20 03:47:12;;;;;;;25.00;21.25;;;22.70;52.40;;;;;;4807532;54;21079;-28
2022/09/20 03:55:25;;;;;;;29.02;21.70;;;22.70;52.40;;;;;;4844185;54;21600;-27
2022/09/20 04:00:57;;;;;;;25.02;20.10;;;22.70;52.30;;;;;;4818109;54;21486;-30
2022/09/20 04:07:43;;;;;;;24.45;20.25;;;22.60;52.30;;;;;;4817374;54;21051;-30
2022/09/20 04:16:09;;;;;;;23.87;19.08;;;22.70;52.40;;;;;;4799758;54;21021;-29
2022/09/20 04:21:22;;;;;;;;;;;22.60;52.30;;;;;;4815748;54;21028;-33
2022/09/20 04:26:29;;;;;;;24.00;20.25;;;22.60;52.30;;;;;;4809297;54;20306;-27
2022/09/20 04:31:44;;;;;;;22.10;18.37;;;22.60;52.30;;;;;;4807451;54;20992;-30
2022/09/20 04:37:03;;;;;;;22.77;19.20;;;22.60;52.20;;;;;;4810012;54;20976;-30
2022/09/20 04:45:02;;;;;;;21.83;18.37;;;22.60;52.10;;;;;;4800079;54;21534;-29
2022/09/20 04:53:42;;;;;;;21.23;18.48;;;22.60;52.00;;;;;;4826032;54;21526;-29
2022/09/20 04:58:47;;;;;;;22.27;18.50;;;22.60;51.90;;;;;;4799378;54;21023;-27
2022/09/20 05:05:37;;;;;;;24.50;17.92;;;22.60;51.80;;;;;;4817368;54;21071;-31
2022/09/20 05:13:27;;;;;;;24.10;19.02;;;22.60;51.70;;;;;;4841102;54;21047;-30
2022/09/20 05:20:12;;;;;;;22.70;17.40;;;22.60;51.80;;;;;;4840562;54;21023;-33
2022/09/20 05:27:32;;;;;;;21.67;18.77;;;22.60;51.70;;;;;;4815959;54;20992;-34
2022/09/20 05:32:47;;;;;;;23.38;19.25;;;22.60;51.70;;;;;;4838065;54;21004;-35
2022/09/20 05:39:01;;;;;;;21.52;17.25;;;22.60;51.70;;;;;;4812551;54;21043;-32
2022/09/20 05:44:35;;;;;;;22.48;19.12;;;22.60;51.70;;;;;;4811734;54;21092;-30
2022/09/20 05:50:36;;;;;;;22.27;17.40;;;22.60;51.60;;;;;;4808005;54;21522;-29
2022/09/20 05:58:33;;;;;;;21.83;17.98;;;22.60;51.70;;;;;;4806012;54;21415;-32
2022/09/20 06:03:53;;;;;;;22.17;17.85;;;22.60;51.80;;;;;;4809912;54;21067;-30
2022/09/20 06:09:28;;;;;;;23.67;18.77;;;22.60;51.70;;;;;;4806654;54;21518;-32
2022/09/20 06:15:34;;;;;;;22.80;18.90;;;22.50;52.10;;;;;;4802072;54;21063;-29
2022/09/20 06:21:47;;;;;;;23.70;19.75;;;22.60;51.50;;;;;;4811514;54;21004;-30
2022/09/20 06:26:52;;;;;;;23.42;18.87;;;22.50;51.40;;;;;;4795478;58;21099;-30
2022/09/20 06:31:53;;;;;;;23.45;19.25;;;22.50;51.30;;;;;;4817274;54;21492;-28
2022/09/20 06:42:26;;;;;;;23.95;19.45;;;22.60;51.20;;;;;;4885260;54;21095;-31
2022/09/20 06:47:27;;;;;;;26.48;21.48;;;22.50;51.20;;;;;;4795433;58;21562;-30
2022/09/20 06:52:28;;;;;;;25.90;21.15;;;22.60;51.10;;;;;;4797206;54;21110;-30
2022/09/20 06:57:36;;;;;;;25.33;21.55;;;22.50;51.10;;;;;;4795720;58;21111;-31
2022/09/20 07:02:37;;;;;;;31.10;24.63;;;22.50;50.80;;;;;;4814707;54;21582;-34
2022/09/20 07:07:38;;;;;;;34.25;28.12;;;22.60;50.60;;;;;;4796271;54;21048;-30
2022/09/20 07:12:39;;;;;;;42.85;33.40;;;22.70;50.70;;;;;;4797710;54;21012;-32
2022/09/20 07:17:43;;;;;;;54.80;37.45;;;22.70;50.60;;;;;;4817701;54;21535;-30
2022/09/20 07:22:45;;;;;;;58.53;42.28;;;22.70;50.40;;;;;;4812629;54;21004;-30
2022/09/20 07:27:49;;;;;;;61.92;44.88;;;22.80;50.50;;;;;;4800415;54;21039;-30
2022/09/20 07:32:50;;;;;;;68.53;46.80;;;22.80;50.20;;;;;;4799842;54;22013;-29
2022/09/20 07:37:56;;;;;;;68.03;47.53;;;22.80;50.10;;;;;;4797716;54;21043;-30
2022/09/20 07:43:00;;;;;;;64.07;46.97;;;22.90;50.20;;;;;;4805859;54;21020;-29
2022/09/20 07:48:04;;;;;;;65.68;48.60;;;22.90;50.00;;;;;;4826486;54;21498;-34
2022/09/20 07:53:05;;;;;;;63.03;47.88;;;22.90;50.00;;;;;;4805280;54;21072;-32
2022/09/20 07:58:05;;;;;;;66.82;47.47;;;22.90;50.10;;;;;;4795706;54;21044;-35
2022/09/20 08:03:07;;;;;;;61.88;45.55;;;22.90;50.40;;;;;;4796192;54;21028;-32
2022/09/20 08:08:08;;;;;;;65.28;48.63;;;23.00;50.00;;;;;;4804582;54;21067;-32
2022/09/20 08:13:10;;;;;;;64.57;47.13;;;23.00;49.70;;;;;;4796074;54;20999;-29
2022/09/20 08:18:12;;;;;;;68.55;48.92;;;23.00;50.10;;;;;;4813287;54;21056;-29
2022/09/20 08:23:13;;;;;;;62.75;46.70;;;23.00;49.80;;;;;;4794383;54;21020;-33
2022/09/20 08:28:13;;;;;;;65.15;47.47;;;23.00;49.90;;;;;;4813402;54;20992;-31
2022/09/20 08:33:14;;;;;;;63.72;46.05;;;23.10;49.80;;;;;;4795935;54;21067;-29
2022/09/20 08:38:15;;;;;;;66.78;46.97;;;23.10;50.40;;;;;;4795155;54;21012;-32
2022/09/20 08:43:16;;;;;;;63.50;47.62;;;23.10;50.90;;;;;;4795339;54;21045;-34
2022/09/20 08:48:18;;;;;;;62.75;45.55;;;23.10;50.40;;;;;;4797561;54;21011;-27
2022/09/20 08:53:19;;;;;;;66.10;46.15;;;23.00;50.20;;;;;;4807895;54;21127;-33
2022/09/20 08:58:20;;;;;;;69.50;47.17;;;23.10;50.30;;;;;;4808542;54;21257;-32
2022/09/20 09:03:21;;;;;;;66.70;47.20;;;23.00;50.40;;;;;;4799385;54;21524;-31
2022/09/20 09:08:33;;;;;;;67.07;47.20;;;23.00;50.00;;;;;;4814221;54;21046;-34
2022/09/20 09:13:52;;;;;;;62.47;44.83;;;23.00;49.60;;;;;;4795591;58;21074;-30
2022/09/20 09:18:54;;;;;;;68.45;45.95;;;23.00;49.60;;;;;;4812567;54;21493;-31
2022/09/20 09:24:19;;;;;;;65.55;44.55;;;23.00;49.50;;;;;;4800519;54;21042;-30
2022/09/20 09:29:23;;;;;;;63.08;45.78;;;23.00;49.10;;;;;;4795371;58;22321;-34
2022/09/20 09:34:37;;;;;;;62.05;44.17;;;23.00;49.20;;;;;;4795625;58;21547;-35
2022/09/20 09:39:39;;;;;;;64.82;44.92;;;23.00;49.20;;;;;;4795583;54;22140;-39
2022/09/20 09:44:40;;;;;;;67.70;44.38;;;23.00;49.30;;;;;;4796106;54;21066;-31
2022/09/20 09:49:58;;;;;;;64.93;43.87;;;23.00;49.20;;;;;;4811323;54;21125;-33
2022/09/20 09:55:00;;;;;;;60.60;43.15;;;23.00;49.20;;;;;;4803611;54;21091;-30
2022/09/20 10:00:12;;;;;;;57.47;41.63;;;23.00;49.20;;;;;;4795129;58;21012;-31
2022/09/20 10:06:57;;;;;;;58.85;40.47;;;23.00;49.20;;;;;;4807344;54;21019;-31
2022/09/20 10:12:53;;;;;;;66.03;41.80;;;23.00;49.20;;;;;;4795089;58;20980;-27
2022/09/20 10:18:02;;;;;;;;;;;23.10;49.40;;;;;;4798492;58;21027;-33
2022/09/20 10:23:55;;;;;;;66.00;43.33;;;23.10;49.50;;;;;;4794192;54;20071;-32
2022/09/20 10:29:17;;;;;;;60.28;43.03;;;23.10;49.60;;;;;;4798186;54;21522;-33
2022/09/20 10:34:54;;;;;;;60.53;43.55;;;23.10;49.60;;;;;;4795520;58;22426;-31
2022/09/20 10:40:24;;;;;;;61.03;44.67;;;23.10;49.80;;;;;;4794785;58;21736;-32
2022/09/20 10:48:11;;;;;;;67.10;44.78;;;23.20;49.60;;;;;;4795488;58;21147;-30
2022/09/20 10:55:11;;;;;;;63.58;45.53;;;23.20;50.00;;;;;;4822698;54;21533;-33
2022/09/20 11:03:00;;;;;;;72.22;45.35;;;23.20;50.00;;;;;;4794969;54;21051;-29
2022/09/20 11:08:14;;;;;;;66.68;44.65;;;23.20;49.80;;;;;;4797530;54;21510;-31
2022/09/20 11:14:57;;;;;;;65.32;42.83;;;23.30;49.90;;;;;;4806267;54;21003;-35
2022/09/20 11:20:26;;;;;;;58.58;43.25;;;23.30;50.00;;;;;;4811597;54;21080;-29
2022/09/20 11:25:50;;;;;;;60.35;44.20;;;23.30;49.90;;;;;;4797146;54;21028;-29
2022/09/20 11:31:40;;;;;;;57.85;41.53;;;23.20;49.20;;;;;;4818565;54;21521;-29
2022/09/20 11:37:00;;;;;;;57.15;40.12;;;23.20;49.90;;;;;;4809952;54;21000;-30
2022/09/20 11:42:04;;;;;;;55.38;40.47;;;23.20;49.00;;;;;;4804121;54;21490;-33
2022/09/20 11:47:31;;;;;;;55.40;38.30;;;23.20;48.90;;;;;;4826104;54;21040;-30
2022/09/20 11:54:27;;;;;;;52.95;38.20;;;23.20;48.90;;;;;;4802318;54;21036;-31
2022/09/20 11:59:40;;;;;;;53.70;37.13;;;23.10;48.70;;;;;;4811333;54;21474;-30
2022/09/20 12:04:46;;;;;;;52.25;35.25;;;23.10;48.10;;;;;;4795133;58;21482;-27
2022/09/20 12:09:57;;;;;;;50.38;35.88;;;23.10;48.60;;;;;;4846157;54;21549;-29
2022/09/20 12:15:01;;;;;;;49.17;35.50;;;23.20;48.70;;;;;;4795453;58;21489;-27
2022/09/20 12:21:04;;;;;;;46.58;35.10;;;23.20;48.80;;;;;;4795064;55;21063;-31
2022/09/20 12:26:49;;;;;;;46.80;34.30;;;23.20;49.00;;;;;;4796379;54;21549;-29
2022/09/20 12:31:53;;;;;;;45.08;33.53;;;23.20;49.00;;;;;;4820468;54;21966;-34
2022/09/20 12:37:18;;;;;;;43.50;32.08;;;23.20;48.70;;;;;;4804727;54;21016;-34
2022/09/20 12:42:30;;;;;;;43.90;31.83;;;23.20;49.00;;;;;;4794575;54;21568;-29
2022/09/20 12:47:34;;;;;;;42.25;32.13;;;23.30;48.80;;;;;;4869026;54;21505;-30
2022/09/20 12:53:02;;;;;;;41.25;29.85;;;23.30;48.70;;;;;;4818443;54;21059;-29
2022/09/20 12:58:50;;;;;;;39.40;30.60;;;23.30;48.80;;;;;;4807887;54;21484;-30
2022/09/20 13:03:51;;;;;;;36.17;28.65;;;23.30;48.40;;;;;;4814462;54;21537;-30
2022/09/20 13:09:12;;;;;;;40.12;29.70;;;23.30;48.70;;;;;;4801966;54;20984;-29
2022/09/20 13:14:31;;;;;;;41.60;29.17;;;23.30;48.70;;;;;;4796073;58;21469;-30
2022/09/20 13:19:47;;;;;;;38.20;29.23;;;23.30;48.40;;;;;;4802377;54;21019;-32
2022/09/20 13:24:54;;;;;;;38.70;28.52;;;23.40;48.70;;;;;;4815294;54;21667;-29
2022/09/20 13:30:18;;;;;;;40.75;28.90;;;23.40;48.90;;;;;;4815268;54;21074;-31
2022/09/20 13:35:26;;;;;;;40.47;29.70;;;23.40;48.60;;;;;;4806033;54;20988;-30
2022/09/20 13:41:09;;;;;;;37.13;28.87;;;23.40;48.80;;;;;;4820869;54;21067;-28
2022/09/20 13:46:15;;;;;;;38.78;28.20;;;23.40;48.60;;;;;;4805001;54;20976;-31
2022/09/20 13:51:23;;;;;;;36.83;27.83;;;23.40;49.00;;;;;;4798914;54;21188;-30
2022/09/20 13:56:30;;;;;;;34.50;26.40;;;23.40;49.60;;;;;;4814804;54;20996;-34
2022/09/20 14:01:34;;;;;;;38.88;27.37;;;23.40;49.10;;;;;;4827396;54;21115;-31
2022/09/20 14:06:35;;;;;;;36.42;25.27;;;23.40;49.00;;;;;;4816603;54;21095;-32
2022/09/20 14:11:37;;;;;;;37.92;27.25;;;23.30;49.40;;;;;;4805724;54;21119;-30
2022/09/20 14:16:43;;;;;;;36.95;27.00;;;23.30;49.30;;;;;;4795827;55;21083;-31
2022/09/20 14:21:45;;;;;;;39.08;29.02;;;23.40;49.30;;;;;;4794695;54;22303;-32
2022/09/20 14:27:18;;;;;;;40.60;29.90;;;23.30;49.20;;;;;;4837187;54;21036;-31
2022/09/20 14:32:42;;;;;;;41.15;30.92;;;23.30;49.20;;;;;;4814909;54;21048;-37
2022/09/20 14:37:50;;;;;;;42.35;31.25;;;23.30;49.10;;;;;;4795608;58;21004;-34
2022/09/20 14:43:02;;;;;;;41.88;30.33;;;23.30;49.10;;;;;;4822939;54;21067;-32
2022/09/20 14:48:33;;;;;;;44.97;30.37;;;23.20;49.20;;;;;;4797643;54;20992;-35
2022/09/20 14:53:36;;;;;;;38.80;28.87;;;23.20;49.30;;;;;;4794167;58;21024;-33
2022/09/20 15:00:48;;;;;;;38.03;28.27;;;23.20;49.50;;;;;;4795513;58;21564;-27
2022/09/20 15:05:49;;;;;;;40.47;28.10;;;23.10;49.50;;;;;;4795356;58;21554;-31
2022/09/20 15:10:50;;;;;;;38.13;27.87;;;23.10;49.70;;;;;;4813189;54;21067;-26
2022/09/20 15:15:53;;;;;;;36.95;27.17;;;23.00;49.80;;;;;;4804108;54;21003;-28
2022/09/20 15:20:54;;;;;;;35.33;26.35;;;23.00;49.80;;;;;;4795173;58;21091;-36
2022/09/20 15:25:55;;;;;;;35.50;27.25;;;23.00;49.90;;;;;;4804334;54;21004;-27
2022/09/20 15:30:57;;;;;;;34.97;26.23;;;23.00;50.00;;;;;;4841691;54;21004;-31
2022/09/20 15:35:58;;;;;;;35.88;26.55;;;23.00;50.10;;;;;;4812460;54;21024;-30
2022/09/20 15:41:04;;;;;;;33.00;26.05;;;22.90;50.00;;;;;;4794222;55;21137;-35
2022/09/20 15:46:40;;;;;;;30.65;25.05;;;22.90;50.10;;;;;;4795504;58;21510;-29
2022/09/20 15:51:41;;;;;;;34.53;26.50;;;22.90;50.20;;;;;;4799818;54;21493;-31
2022/09/20 15:56:42;;;;;;;36.50;27.15;;;22.90;50.30;;;;;;4799488;54;21028;-33
2022/09/20 16:01:46;;;;;;;35.45;27.15;;;22.90;50.20;;;;;;4810499;54;21083;-28
2022/09/20 16:06:48;;;;;;;35.88;27.27;;;22.90;50.30;;;;;;4795939;54;21000;-34
2022/09/20 16:11:49;;;;;;;36.40;27.20;;;22.90;50.20;;;;;;4853439;54;21080;-28
2022/09/20 16:16:50;;;;;;;35.22;26.33;;;22.90;50.30;;;;;;4862388;54;21087;-29
2022/09/20 16:21:57;;;;;;;33.80;24.52;;;22.90;50.90;;;;;;4794986;58;21056;-29
2022/09/20 16:27:00;;;;;;;35.80;26.70;;;22.90;50.40;;;;;;4796136;56;21568;-32
2022/09/20 16:32:02;;;;;;;32.33;24.33;;;22.80;50.30;;;;;;4808404;54;21497;-30
2022/09/20 16:37:15;;;;;;;33.08;24.63;;;22.80;50.30;;;;;;4806860;54;21474;-30
2022/09/20 16:42:16;;;;;;;32.08;24.83;;;22.80;50.30;;;;;;4805557;54;21643;-30
2022/09/20 16:47:20;;;;;;;30.50;24.12;;;22.90;50.50;;;;;;4812185;54;21490;-36
2022/09/20 16:52:21;;;;;;;32.42;25.73;;;22.80;50.40;;;;;;4793927;58;21482;-28
2022/09/20 16:57:22;;;;;;;35.70;25.80;;;22.80;50.50;;;;;;4802062;54;21044;-32
2022/09/20 17:02:23;;;;;;;33.40;25.85;;;22.80;50.50;;;;;;4793568;55;21100;-31
2022/09/20 17:07:24;;;;;;;31.87;24.48;;;22.80;50.50;;;;;;4794795;58;21052;-30
2022/09/20 17:12:27;;;;;;;33.10;25.15;;;22.80;50.60;;;;;;4819279;54;21071;-31
2022/09/20 17:17:28;;;;;;;34.80;26.37;;;22.80;50.50;;;;;;4813138;54;21474;-31
2022/09/20 17:22:29;;;;;;;31.83;26.83;;;22.80;50.60;;;;;;4795122;55;21091;-34
2022/09/20 17:27:31;;;;;;;32.22;26.02;;;22.80;50.60;;;;;;4797914;54;21032;-36
2022/09/20 17:32:32;;;;;;;32.97;27.33;;;22.80;50.60;;;;;;4795463;58;21585;-31
2022/09/20 17:37:33;;;;;;;35.65;26.77;;;22.80;50.70;;;;;;4806036;54;21048;-34
2022/09/20 17:42:36;;;;;;;33.10;27.00;;;22.80;50.70;;;;;;4795545;58;21015;-33
2022/09/20 17:47:40;;;;;;;36.42;26.60;;;22.80;50.80;;;;;;4804301;54;22265;-32
2022/09/20 17:52:41;;;;;;;36.80;27.50;;;22.80;50.80;;;;;;4794605;58;21577;-33
2022/09/20 17:57:42;;;;;;;37.13;28.25;;;22.80;50.90;;;;;;4795159;58;21074;-34
2022/09/20 18:02:43;;;;;;;35.35;27.87;;;22.80;50.80;;;;;;4801213;54;21059;-31
2022/09/20 18:07:44;;;;;;;38.95;28.38;;;22.80;50.90;;;;;;4797486;54;21004;-33
2022/09/20 18:12:44;;;;;;;35.20;27.73;;;22.80;50.90;;;;;;4799697;54;21121;-33
2022/09/20 18:17:45;;;;;;;37.10;28.00;;;22.70;51.00;;;;;;4794996;58;21481;-34
2022/09/20 18:22:51;;;;;;;34.90;27.83;;;22.80;51.00;;;;;;4802130;54;21016;-29
2022/09/20 18:27:53;;;;;;;35.95;29.12;;;22.70;51.00;;;;;;4796480;58;22022;-26
2022/09/20 18:32:54;;;;;;;38.22;28.77;;;22.70;51.00;;;;;;4812976;54;21585;-29
2022/09/20 18:37:54;;;;;;;37.42;29.05;;;22.80;51.00;;;;;;4801053;54;21067;-27
2022/09/20 18:42:57;;;;;;;36.90;28.60;;;22.70;51.00;;;;;;4796645;54;21000;-27
2022/09/20 18:47:58;;;;;;;37.80;29.55;;;22.70;51.00;;;;;;4799595;54;21525;-29
2022/09/20 18:52:59;;;;;;;35.92;28.02;;;22.70;51.10;;;;;;4805719;54;21028;-27
2022/09/20 18:58:01;;;;;;;37.53;29.63;;;22.70;51.00;;;;;;4820187;54;21067;-31
2022/09/20 19:03:16;;;;;;;38.55;30.08;;;22.70;51.00;;;;;;4794782;58;21584;-31
2022/09/20 19:09:05;;;;;;;40.58;29.77;;;22.70;51.00;;;;;;4831126;54;20968;-28
2022/09/20 19:15:45;;;;;;;40.28;29.80;;;22.70;51.10;;;;;;4819761;54;21020;-29
2022/09/20 19:21:16;;;;;;;40.35;30.73;;;22.70;51.10;;;;;;4796500;54;21530;-28
2022/09/20 19:26:25;;;;;;;40.85;30.90;;;22.70;51.10;;;;;;4821971;54;21043;-29
2022/09/20 19:31:34;;;;;;;40.50;30.77;;;22.70;51.10;;;;;;4801057;54;20980;-30
2022/09/20 19:39:58;;;;;;;39.13;30.95;;;22.70;51.20;;;;;;4804007;54;21067;-28
2022/09/20 19:51:49;;;;;;;40.00;30.25;;;22.70;51.10;;;;;;4826690;54;21111;-33
2022/09/20 19:56:55;;;;;;;37.60;29.25;;;22.70;51.30;;;;;;4796441;54;20991;-28
2022/09/20 20:01:57;;;;;;;37.40;29.87;;;22.70;51.30;;;;;;4818594;54;21525;-31
2022/09/20 20:07:34;;;;;;;40.90;31.30;;;22.70;51.30;;;;;;4799065;54;21000;-34
2022/09/20 20:14:01;;;;;;;42.83;33.45;;;22.70;51.30;;;;;;4818525;54;21357;-34
2022/09/20 20:21:00;;;;;;;39.50;31.77;;;22.70;51.40;;;;;;4849037;54;21059;-27
2022/09/20 20:26:24;;;;;;;38.83;30.98;;;22.60;51.30;;;;;;4795177;58;21075;-30
2022/09/20 20:31:28;;;;;;;39.58;30.92;;;22.60;51.30;;;;;;4806433;54;21059;-30
2022/09/20 20:36:29;;;;;;;39.45;30.77;;;22.60;51.30;;;;;;4858639;54;21482;-34
2022/09/20 20:41:30;;;;;;;45.22;33.88;;;22.70;51.90;;;;;;4820384;54;21031;-31
2022/09/20 20:46:34;;;;;;;42.47;31.80;;;22.70;51.40;;;;;;4797838;54;21516;-33
2022/09/20 20:51:35;;;;;;;39.00;31.35;;;22.60;51.30;;;;;;4851486;54;21557;-33
2022/09/20 20:56:39;;;;;;;42.28;32.55;;;22.60;51.40;;;;;;4814863;54;21031;-33
2022/09/20 21:01:41;;;;;;;41.20;31.65;;;22.60;51.30;;;;;;4794567;58;21008;-30
2022/09/20 21:06:42;;;;;;;40.55;31.45;;;22.60;51.30;;;;;;4804449;54;21458;-33
2022/09/20 21:11:44;;;;;;;38.65;31.60;;;22.60;51.30;;;;;;4795768;54;21035;-30
2022/09/20 21:16:45;;;;;;;37.03;29.50;;;22.60;51.30;;;;;;4805522;54;21546;-35
2022/09/20 21:21:46;;;;;;;39.78;30.62;;;22.60;51.30;;;;;;4818808;54;21016;-33
2022/09/20 21:26:47;;;;;;;37.20;29.52;;;22.60;51.30;;;;;;4803811;54;21525;-34
2022/09/20 21:31:48;;;;;;;35.38;28.12;;;22.60;51.90;;;;;;4830101;54;20992;-32
2022/09/20 21:36:50;;;;;;;35.08;27.85;;;22.60;51.40;;;;;;4803848;54;20996;-34
2022/09/20 21:41:51;;;;;;;33.25;27.00;;;22.60;51.40;;;;;;4794965;58;21127;-30
2022/09/20 21:46:52;;;;;;;34.92;28.33;;;22.60;51.50;;;;;;4795996;58;20988;-33
2022/09/20 21:51:55;;;;;;;33.63;27.70;;;22.60;51.60;;;;;;4825401;54;21040;-36
2022/09/20 21:56:58;;;;;;;33.55;26.83;;;22.60;51.60;;;;;;4795899;55;21032;-35
2022/09/20 22:01:59;;;;;;;35.25;27.52;;;22.60;51.60;;;;;;4798803;54;21490;-27
2022/09/20 22:07:02;;;;;;;34.13;25.85;;;22.60;51.70;;;;;;4797876;54;21052;-33
2022/09/20 22:12:06;;;;;;;31.42;25.88;;;22.60;51.70;;;;;;4795564;58;21457;-28
2022/09/20 22:17:07;;;;;;;31.85;25.65;;;22.50;51.60;;;;;;4864033;54;21015;-35
2022/09/20 22:22:09;;;;;;;33.05;26.33;;;22.50;51.70;;;;;;4831690;54;21553;-35
2022/09/20 22:27:09;;;;;;;30.05;24.83;;;22.50;51.70;;;;;;4815786;54;21039;-35
2022/09/20 22:32:10;;;;;;;30.25;25.20;;;22.50;51.80;;;;;;4795717;55;21023;-33
2022/09/20 22:37:11;;;;;;;29.98;24.40;;;22.50;51.80;;;;;;4816882;54;21008;-32
2022/09/20 22:42:12;;;;;;;30.35;24.08;;;22.50;51.80;;;;;;4842286;54;21008;-28
2022/09/20 22:47:13;;;;;;;30.52;24.15;;;22.50;51.80;;;;;;4797310;54;21012;-29
2022/09/20 22:52:13;;;;;;;29.33;22.98;;;22.50;51.80;;;;;;4809279;54;21027;-30
2022/09/20 22:57:14;;;;;;;27.95;22.90;;;22.50;51.90;;;;;;4806793;54;21023;-28
2022/09/20 23:02:15;;;;;;;27.08;22.70;;;22.50;51.90;;;;;;4798311;54;21023;-28
2022/09/20 23:07:19;;;;;;;29.90;23.02;;;22.50;51.90;;;;;;4795885;58;20999;-27
2022/09/20 23:12:20;;;;;;;27.98;23.12;;;22.50;51.90;;;;;;4832938;54;21554;-34
2022/09/20 23:17:21;;;;;;;29.10;23.10;;;22.50;52.00;;;;;;4795828;58;21102;-33
2022/09/20 23:22:22;;;;;;;27.62;22.87;;;22.50;52.00;;;;;;4806536;54;21035;-35
2022/09/20 23:27:22;;;;;;;25.55;20.70;;;22.50;52.00;;;;;;4795816;58;21517;-29
2022/09/20 23:32:24;;;;;;;26.70;21.73;;;22.60;52.10;;;;;;4818898;54;21970;-31
2022/09/20 23:37:25;;;;;;;27.55;21.87;;;22.50;52.10;;;;;;4866873;54;21557;-31
2022/09/20 23:42:28;;;;;;;25.62;21.10;;;22.50;52.20;;;;;;4802875;54;21059;-32
2022/09/20 23:47:29;;;;;;;26.33;20.52;;;22.50;52.10;;;;;;4830755;54;21087;-29
2022/09/20 23:52:30;;;;;;;24.77;21.10;;;22.50;52.10;;;;;;4819298;54;21519;-28
2022/09/20 23:57:31;;;;;;;24.40;19.80;;;22.50;52.20;;;;;;4794977;55;22053;-30
